Карточка аэропорта UWLL

Внимание!
Информация на этой странице в стадии наполнения.
Если вы не увидели какой-то информации, или заметили неточность - пожалуйста сообщите нам!
Спасибо!
Команда XR-STAFF
Название аэропортаБаратаевка
Название аэропорта (англ.)Barataevka
Превышение426 ft. (129.8 m.)
Координаты54°16.236', 48°13.416'
Высота перехода900
Эшелон переходаBy ATC
Коды ответчика1000
Зона ОрВДСамара РПИ (UWWW)
Данные METARUWLL 160900Z 28004MPS 240V320 9999 BKN030CB 18/04 Q0999 R20/120060 NOSIG RMK QFE739/0986
Проноз погоды (TAF)UWLL 160751Z 1609/1709 27006G13MPS 9999 BKN016CB TX19/1612Z TN06/1701Z TEMPO 1609/1616 VRB20MPS 1500 TSRAGR SQ BKN005 BKN012CB TEMPO 1616/1709 23008MPS
NOTAMshow/hide NOTAM
AWOS   TABLE

Информация о ВПП


Диспетчерские позиции

Позывной Наименование органа УВД Частота
UWLL_GNDУльяновск-Руление121.8
UWLL_R_APPУльяновск-Круг120.8
UWLL_TWRУльяновск-Старт/Посадка120.4
UWLL_APPУльяновск-Подход127.3



Спутниковое изображение